createdAt,value
2019-01-31T00:02:41.932Z,98837.00
2019-01-31T00:05:43.900Z,98826.58
2019-01-31T00:08:45.537Z,98823.25
2019-01-31T00:11:35.169Z,98820.58
2019-01-31T00:14:29.423Z,98818.45
2019-01-31T00:17:17.105Z,98822.66
2019-01-31T00:20:12.861Z,98823.16
2019-01-31T00:23:36.726Z,98821.91
2019-01-31T00:26:57.642Z,98824.34
2019-01-31T00:30:05.626Z,98821.86
2019-01-31T00:32:56.263Z,98822.27
2019-01-31T00:35:52.709Z,98827.55
2019-01-31T00:38:29.495Z,98824.21
2019-01-31T00:41:34.071Z,98822.92
2019-01-31T00:44:57.743Z,98829.05
2019-01-31T00:47:48.697Z,98819.85
2019-01-31T00:50:23.737Z,98787.47
2019-01-31T00:53:20.069Z,98830.83
2019-01-31T00:56:04.895Z,98825.67
2019-01-31T00:59:28.959Z,98824.55
2019-01-31T01:02:36.582Z,98831.58
2019-01-31T01:05:51.084Z,98834.36
2019-01-31T01:08:27.682Z,98834.51
2019-01-31T01:11:39.093Z,98842.18
2019-01-31T01:14:41.070Z,98830.50
2019-01-31T01:17:51.517Z,98836.59
2019-01-31T01:20:43.743Z,98838.62
2019-01-31T01:23:38.750Z,98837.34
2019-01-31T01:26:36.984Z,98839.11
2019-01-31T01:29:27.857Z,98844.55
2019-01-31T01:32:24.253Z,98852.87
2019-01-31T01:35:28.917Z,98847.48
2019-01-31T01:38:33.739Z,98852.94
2019-01-31T01:41:47.478Z,98848.56
2019-01-31T01:44:58.399Z,98853.77
2019-01-31T01:48:01.558Z,98854.17
2019-01-31T01:50:42.420Z,98864.52
2019-01-31T01:53:36.435Z,98866.23
2019-01-31T01:56:42.395Z,98865.45
2019-01-31T01:59:29.079Z,98873.33
2019-01-31T02:02:50.039Z,98871.39
2019-01-31T02:06:07.883Z,98872.55
2019-01-31T02:09:30.309Z,98875.26
2019-01-31T02:12:42.373Z,98873.73
2019-01-31T02:15:53.054Z,98871.10
2019-01-31T02:18:45.275Z,98868.97
2019-01-31T02:21:29.919Z,98865.05
2019-01-31T02:24:46.262Z,98865.02
2019-01-31T02:28:07.187Z,98870.80
2019-01-31T02:31:17.991Z,98882.09
2019-01-31T02:34:07.113Z,98873.73
2019-01-31T02:37:20.810Z,98875.81
2019-01-31T02:40:42.302Z,98876.11
2019-01-31T02:43:50.067Z,98888.37
2019-01-31T02:46:42.113Z,98888.24
2019-01-31T02:49:25.392Z,98894.23
2019-01-31T02:52:13.453Z,98896.85
2019-01-31T02:55:17.620Z,98898.13
2019-01-31T02:58:24.054Z,98898.29
2019-01-31T03:01:12.841Z,98893.72
2019-01-31T03:04:12.432Z,98897.98
2019-01-31T03:07:18.363Z,98894.58
2019-01-31T03:10:05.998Z,98896.31
2019-01-31T03:13:16.831Z,98897.59
2019-01-31T03:16:08.023Z,98896.66
2019-01-31T03:18:42.516Z,98896.16
2019-01-31T03:21:50.478Z,98884.02
2019-01-31T03:24:36.559Z,98896.11
2019-01-31T03:27:42.793Z,98888.81
2019-01-31T03:30:43.063Z,98892.17
2019-01-31T03:33:27.381Z,98898.97
2019-01-31T03:36:17.485Z,98896.87
2019-01-31T03:39:12.323Z,98899.89
2019-01-31T03:42:10.453Z,98906.58
2019-01-31T03:45:04.868Z,98902.44
2019-01-31T03:48:12.207Z,98902.08
2019-01-31T03:51:25.532Z,98910.75
2019-01-31T03:54:29.812Z,98908.33
2019-01-31T03:57:30.318Z,98912.36
2019-01-31T04:01:03.419Z,98904.69
2019-01-31T04:03:35.065Z,98908.13
2019-01-31T04:06:24.175Z,98919.39
2019-01-31T04:08:51.225Z,98919.55
2019-01-31T04:11:18.723Z,98919.59
2019-01-31T04:13:45.976Z,98923.16
2019-01-31T04:16:13.886Z,98921.05
2019-01-31T04:18:40.907Z,98919.39
2019-01-31T04:21:08.503Z,98927.23
2019-01-31T04:23:35.673Z,98929.25
2019-01-31T04:26:07.039Z,98926.70
2019-01-31T04:28:34.084Z,98925.84
2019-01-31T04:31:01.211Z,98924.95
2019-01-31T04:33:28.398Z,98936.63
2019-01-31T04:35:55.788Z,98932.77
2019-01-31T04:38:23.025Z,98936.66
2019-01-31T04:40:50.296Z,98940.06
2019-01-31T04:43:17.207Z,98940.91
2019-01-31T04:45:44.167Z,98937.96
2019-01-31T04:48:11.405Z,98939.70
2019-01-31T04:50:38.422Z,98943.94
2019-01-31T04:53:05.405Z,98940.65
2019-01-31T04:55:32.337Z,98933.87
2019-01-31T04:57:59.311Z,98891.28
2019-01-31T05:00:26.210Z,98933.05
2019-01-31T05:02:53.197Z,98932.24
2019-01-31T05:05:20.165Z,98940.35
2019-01-31T05:07:47.179Z,98938.23
2019-01-31T05:10:14.173Z,98944.69
2019-01-31T05:12:41.096Z,98934.81
2019-01-31T05:15:10.279Z,98940.41
2019-01-31T05:17:37.230Z,98942.90
2019-01-31T05:20:06.129Z,98938.57
2019-01-31T05:22:33.070Z,98944.97
2019-01-31T05:24:59.974Z,98933.44
2019-01-31T05:27:26.917Z,98935.56
2019-01-31T05:29:53.865Z,98950.12
2019-01-31T05:32:20.793Z,98944.57
2019-01-31T05:34:47.741Z,98944.94
2019-01-31T05:37:17.710Z,98947.45
2019-01-31T05:39:44.649Z,98947.05
2019-01-31T05:42:11.596Z,98952.27
2019-01-31T05:44:38.552Z,98947.64
2019-01-31T05:47:05.528Z,98943.35
2019-01-31T05:49:32.439Z,98947.27
2019-01-31T05:51:59.409Z,98954.49
2019-01-31T05:54:26.314Z,98955.36
2019-01-31T05:56:53.414Z,98959.77
2019-01-31T05:59:20.301Z,98957.20
2019-01-31T06:01:47.205Z,98953.45
2019-01-31T06:04:14.160Z,98957.22
2019-01-31T06:06:41.126Z,98963.63
2019-01-31T06:09:08.276Z,98962.48
2019-01-31T06:11:35.322Z,98965.91
2019-01-31T06:14:02.328Z,98963.31
2019-01-31T06:16:29.327Z,98967.58
2019-01-31T06:18:56.388Z,98971.00
2019-01-31T06:21:23.333Z,98971.03
2019-01-31T06:23:50.270Z,98969.30
2019-01-31T06:26:17.179Z,98966.79
2019-01-31T06:28:44.154Z,98971.09
2019-01-31T06:31:11.041Z,98969.34
2019-01-31T06:33:38.008Z,98970.66
2019-01-31T06:36:04.937Z,98974.09
2019-01-31T06:38:31.962Z,98975.88
2019-01-31T06:40:58.869Z,98968.16
2019-01-31T06:43:25.824Z,98981.80
2019-01-31T06:45:52.757Z,98976.28
2019-01-31T06:48:19.709Z,98986.98
2019-01-31T06:50:46.592Z,98989.55
2019-01-31T06:53:13.550Z,98997.23
2019-01-31T06:55:40.530Z,98997.23
2019-01-31T06:58:07.483Z,98999.34
2019-01-31T07:00:34.399Z,98993.81
2019-01-31T07:03:01.364Z,98998.09
2019-01-31T07:05:28.275Z,99000.63
2019-01-31T07:07:55.256Z,99004.91
2019-01-31T07:10:24.562Z,99011.73
2019-01-31T07:12:51.632Z,98961.44
2019-01-31T07:15:18.661Z,99013.45
2019-01-31T07:17:45.650Z,99010.05
2019-01-31T07:20:13.638Z,99010.48
2019-01-31T07:22:40.616Z,99015.18
2019-01-31T07:25:11.431Z,99017.34
2019-01-31T07:27:38.385Z,99026.73
2019-01-31T07:30:06.957Z,99022.05
2019-01-31T07:32:33.895Z,99021.61
2019-01-31T07:35:00.843Z,99024.19
2019-01-31T07:37:27.767Z,99016.52
2019-01-31T07:39:57.072Z,99037.03
2019-01-31T07:42:24.004Z,99031.88
2019-01-31T07:44:50.973Z,99031.45
2019-01-31T07:47:17.910Z,99033.13
2019-01-31T07:49:44.852Z,99034.41
2019-01-31T07:52:11.787Z,99034.84
2019-01-31T07:54:38.742Z,99027.99
2019-01-31T07:57:05.663Z,99033.53
2019-01-31T07:59:32.623Z,99036.95
2019-01-31T08:01:59.548Z,99034.80
2019-01-31T08:04:26.534Z,99035.23
2019-01-31T08:06:53.460Z,99033.50
2019-01-31T08:09:20.479Z,99036.02
2019-01-31T08:11:52.725Z,99035.16
2019-01-31T08:14:16.306Z,99035.92
2019-01-31T08:16:43.215Z,99034.17
2019-01-31T08:19:10.196Z,99031.59
2019-01-31T08:21:37.143Z,99031.94
2019-01-31T08:24:04.257Z,99043.13
2019-01-31T08:26:31.176Z,99049.52
2019-01-31T08:28:58.094Z,99055.47
2019-01-31T08:31:25.101Z,99064.05
2019-01-31T08:33:52.054Z,99069.08
2019-01-31T08:36:18.981Z,99074.69
2019-01-31T08:38:45.923Z,99077.73
2019-01-31T08:41:12.940Z,99078.95
2019-01-31T08:43:39.836Z,99081.08
2019-01-31T08:46:06.782Z,99081.43
2019-01-31T08:48:33.778Z,99074.58
2019-01-31T08:51:00.705Z,99075.41
2019-01-31T08:53:27.627Z,99075.94
2019-01-31T08:55:54.681Z,99084.48
2019-01-31T08:58:21.596Z,99083.08
2019-01-31T09:00:48.613Z,99084.24
2019-01-31T09:03:15.712Z,99083.48
2019-01-31T09:05:42.709Z,99087.61
2019-01-31T09:08:09.626Z,99043.67
2019-01-31T09:10:37.983Z,99075.45
2019-01-31T09:13:07.404Z,99075.88
2019-01-31T09:15:34.349Z,99082.33
2019-01-31T09:18:01.262Z,99081.97
2019-01-31T09:20:32.791Z,99084.09
2019-01-31T09:23:17.874Z,99086.59
2019-01-31T09:26:30.335Z,99084.27
2019-01-31T09:29:35.008Z,99095.05
2019-01-31T09:33:05.468Z,99090.73
2019-01-31T09:36:29.672Z,99090.69
2019-01-31T09:39:25.430Z,99090.66
2019-01-31T09:42:29.527Z,99094.36
2019-01-31T09:45:47.531Z,99101.79
2019-01-31T09:48:45.592Z,99102.06
2019-01-31T09:51:50.250Z,99105.45
2019-01-31T09:54:27.807Z,99105.84
2019-01-31T09:58:01.071Z,99117.06
2019-01-31T10:01:14.516Z,99121.12
2019-01-31T10:03:54.198Z,99127.67
2019-01-31T10:07:03.569Z,99131.56
2019-01-31T10:09:55.836Z,99126.91
2019-01-31T10:12:44.868Z,99132.06
2019-01-31T10:15:50.107Z,99126.36
2019-01-31T10:18:49.998Z,99134.86
2019-01-31T10:21:57.910Z,99126.80
2019-01-31T10:25:12.385Z,99133.53
2019-01-31T10:28:08.927Z,99124.49
2019-01-31T10:31:10.263Z,99124.17
2019-01-31T10:34:22.197Z,99124.17
2019-01-31T10:37:18.097Z,99118.41
2019-01-31T10:40:17.423Z,99111.73
2019-01-31T10:43:21.274Z,99118.20
2019-01-31T10:46:08.199Z,99119.41
2019-01-31T10:49:19.472Z,99114.40
2019-01-31T10:52:37.692Z,99108.48
2019-01-31T10:56:01.943Z,99106.49
2019-01-31T10:59:13.648Z,99100.17
2019-01-31T11:02:06.349Z,99094.94
2019-01-31T11:05:13.926Z,99095.27
2019-01-31T11:08:31.850Z,99098.45
2019-01-31T11:11:32.848Z,99090.36
2019-01-31T11:14:42.412Z,99081.93
2019-01-31T11:18:03.132Z,99074.92
2019-01-31T11:21:14.683Z,99078.52
2019-01-31T11:24:22.867Z,99061.59
2019-01-31T11:27:40.770Z,99057.42
2019-01-31T11:30:37.646Z,99050.66
2019-01-31T11:33:39.619Z,99047.14
2019-01-31T11:36:38.999Z,99037.11
2019-01-31T11:39:49.902Z,99033.28
2019-01-31T11:42:45.602Z,99035.86
2019-01-31T11:45:38.726Z,99024.58
2019-01-31T11:48:27.709Z,99022.41
2019-01-31T11:51:31.562Z,99019.83
2019-01-31T11:54:32.043Z,99024.50
2019-01-31T11:57:42.930Z,99015.73
2019-01-31T12:00:13.535Z,99013.56
2019-01-31T12:02:40.435Z,99002.37
2019-01-31T12:05:07.822Z,99012.16
2019-01-31T12:07:36.521Z,99007.00
2019-01-31T12:10:04.361Z,99013.39
2019-01-31T12:12:31.285Z,99001.45
2019-01-31T12:14:58.260Z,99002.97
2019-01-31T12:17:25.194Z,99002.84
2019-01-31T12:19:52.142Z,99000.48
2019-01-31T12:22:20.746Z,99007.91
2019-01-31T12:24:48.079Z,98996.08
2019-01-31T12:27:14.949Z,98993.17
2019-01-31T12:29:41.912Z,98990.59
2019-01-31T12:32:08.875Z,98982.80
2019-01-31T12:34:35.910Z,98978.10
2019-01-31T12:37:03.126Z,98982.86
2019-01-31T12:39:30.175Z,98977.77
2019-01-31T12:41:57.068Z,98970.13
2019-01-31T12:44:24.025Z,98961.20
2019-01-31T12:46:51.020Z,98967.44
2019-01-31T12:49:18.344Z,98962.61
2019-01-31T12:51:45.273Z,98965.19
2019-01-31T12:54:12.290Z,98959.48
2019-01-31T12:56:39.280Z,98953.81
2019-01-31T12:59:06.278Z,98951.69
2019-01-31T13:01:33.185Z,98948.17
2019-01-31T13:04:00.154Z,98945.08
2019-01-31T13:06:27.178Z,98946.81
2019-01-31T13:08:54.179Z,98946.44
2019-01-31T13:11:21.173Z,98936.05
2019-01-31T13:13:48.171Z,98936.95
2019-01-31T13:16:15.186Z,98937.44
2019-01-31T13:18:42.276Z,98936.33
2019-01-31T13:21:09.622Z,98941.16
2019-01-31T13:23:36.576Z,98935.48
2019-01-31T13:26:04.625Z,98932.14
2019-01-31T13:28:32.063Z,98934.27
2019-01-31T13:30:59.185Z,98929.50
2019-01-31T13:33:26.280Z,98921.82
2019-01-31T13:35:53.345Z,98926.59
2019-01-31T13:38:20.587Z,98923.59
2019-01-31T13:40:47.519Z,98921.66
2019-01-31T13:43:14.517Z,98918.56
2019-01-31T13:45:41.467Z,98920.92
2019-01-31T13:48:11.222Z,98915.31
2019-01-31T13:50:38.278Z,98921.25
2019-01-31T13:53:06.750Z,98912.56
2019-01-31T13:55:33.909Z,98918.05
2019-01-31T13:58:00.913Z,98922.16
2019-01-31T14:00:27.824Z,98920.47
2019-01-31T14:02:54.737Z,98917.94
2019-01-31T14:05:21.865Z,98924.44
2019-01-31T14:07:49.029Z,98917.94
2019-01-31T14:10:18.550Z,98921.66
2019-01-31T14:12:45.586Z,98922.27
2019-01-31T14:15:14.039Z,98916.92
2019-01-31T14:17:41.015Z,98920.28
2019-01-31T14:20:11.145Z,98919.33
2019-01-31T14:22:43.090Z,98916.97
2019-01-31T14:25:07.123Z,98913.42
2019-01-31T14:27:34.149Z,98922.02
2019-01-31T14:30:01.216Z,98921.36
2019-01-31T14:32:28.482Z,98918.45
2019-01-31T14:34:55.593Z,98925.05
2019-01-31T14:37:22.644Z,98927.49
2019-01-31T14:39:49.597Z,98923.42
2019-01-31T14:42:16.549Z,98925.38
2019-01-31T14:44:43.504Z,98924.27
2019-01-31T14:47:10.464Z,98920.28
2019-01-31T14:49:37.397Z,98926.01
2019-01-31T14:52:04.663Z,98921.51
2019-01-31T14:54:31.556Z,98922.93
2019-01-31T14:56:58.522Z,98931.17
2019-01-31T14:59:25.508Z,98928.66
2019-01-31T15:01:52.432Z,98929.90
2019-01-31T15:04:19.375Z,98930.02
2019-01-31T15:06:46.350Z,98919.82
2019-01-31T15:09:13.261Z,98924.78
2019-01-31T15:11:40.227Z,98925.19
2019-01-31T15:14:07.202Z,98924.84
2019-01-31T15:16:34.150Z,98883.79
2019-01-31T15:19:01.089Z,98926.20
2019-01-31T15:21:27.993Z,98924.70
2019-01-31T15:23:54.933Z,98924.24
2019-01-31T15:26:21.843Z,98923.75
2019-01-31T15:28:48.790Z,98926.00
2019-01-31T15:31:15.670Z,98919.50
2019-01-31T15:33:42.655Z,98922.97
2019-01-31T15:36:09.629Z,98920.45
2019-01-31T15:38:36.511Z,98925.22
2019-01-31T15:41:03.757Z,98924.55
2019-01-31T15:43:30.668Z,98917.49
2019-01-31T15:45:57.603Z,98920.29
2019-01-31T15:48:24.544Z,98922.02
2019-01-31T15:50:51.467Z,98920.34
2019-01-31T15:53:18.452Z,98917.38
2019-01-31T15:55:45.381Z,98914.91
2019-01-31T15:58:12.340Z,98914.91
2019-01-31T16:00:51.110Z,98912.45
2019-01-31T16:03:20.465Z,98909.20
2019-01-31T16:05:47.522Z,98911.77
2019-01-31T16:08:14.823Z,98912.25
2019-01-31T16:10:42.043Z,98913.92
2019-01-31T16:13:09.017Z,98905.91
2019-01-31T16:15:36.283Z,98909.66
2019-01-31T16:18:03.619Z,98904.09
2019-01-31T16:20:30.538Z,98903.66
2019-01-31T16:22:57.478Z,98899.92
2019-01-31T16:25:24.408Z,98897.83
2019-01-31T16:27:51.370Z,98908.53
2019-01-31T16:30:19.622Z,98902.15
2019-01-31T16:32:46.889Z,98898.83
2019-01-31T16:35:13.867Z,98893.96
2019-01-31T16:37:40.866Z,98889.77
2019-01-31T16:40:10.215Z,98887.63
2019-01-31T16:42:37.166Z,98895.31
2019-01-31T16:45:07.222Z,98895.19
2019-01-31T16:47:34.240Z,98896.05
2019-01-31T16:50:01.354Z,98899.50
2019-01-31T16:52:28.244Z,98890.98
2019-01-31T16:54:55.355Z,98899.45
2019-01-31T16:57:22.266Z,98897.43
2019-01-31T16:59:49.267Z,98889.32
2019-01-31T17:02:16.158Z,98893.25
2019-01-31T17:04:43.400Z,98893.75
2019-01-31T17:07:10.311Z,98895.53
2019-01-31T17:09:39.254Z,98893.16
2019-01-31T17:12:06.200Z,98888.41
2019-01-31T17:14:34.406Z,98888.41
2019-01-31T17:17:01.314Z,98885.48
2019-01-31T17:19:28.239Z,98887.56
2019-01-31T17:21:55.222Z,98887.57
2019-01-31T17:24:23.094Z,98881.56
2019-01-31T17:26:50.151Z,98883.46
2019-01-31T17:29:17.119Z,98890.77
2019-01-31T17:31:44.093Z,98889.58
2019-01-31T17:34:11.229Z,98884.59
2019-01-31T17:36:38.151Z,98880.73
2019-01-31T17:39:08.112Z,98877.38
2019-01-31T17:41:35.138Z,98876.41
2019-01-31T17:44:02.060Z,98872.11
2019-01-31T17:46:29.086Z,98879.44
2019-01-31T17:48:55.996Z,98881.73
2019-01-31T17:51:22.944Z,98870.08
2019-01-31T17:53:49.839Z,98869.73
2019-01-31T17:56:16.784Z,98873.51
2019-01-31T17:58:43.717Z,98870.88
2019-01-31T18:01:10.769Z,98867.95
2019-01-31T18:03:37.714Z,98861.75
2019-01-31T18:06:05.086Z,98854.91
2019-01-31T18:08:32.003Z,98857.59
2019-01-31T18:10:58.984Z,98845.05
2019-01-31T18:13:25.934Z,98853.61
2019-01-31T18:15:52.898Z,98843.59
2019-01-31T18:18:19.793Z,98851.93
2019-01-31T18:20:46.758Z,98847.11
2019-01-31T18:23:13.686Z,98846.33
2019-01-31T18:25:40.657Z,98842.00
2019-01-31T18:28:07.671Z,98838.05
2019-01-31T18:30:34.767Z,98837.69
2019-01-31T18:33:01.708Z,98836.56
2019-01-31T18:35:28.668Z,98838.05
2019-01-31T18:37:55.796Z,98830.19
2019-01-31T18:40:27.933Z,98830.50
2019-01-31T18:42:54.847Z,98823.80
2019-01-31T18:45:23.875Z,98831.97
2019-01-31T18:47:51.055Z,98833.26
2019-01-31T18:50:20.882Z,98822.88
2019-01-31T18:52:47.813Z,98824.31
2019-01-31T18:55:14.758Z,98826.13
2019-01-31T18:57:41.691Z,98826.47
2019-01-31T19:00:20.681Z,98822.58
2019-01-31T19:02:47.625Z,98822.06
2019-01-31T19:05:14.619Z,98818.73
2019-01-31T19:07:41.557Z,98828.70
2019-01-31T19:10:08.677Z,98821.35
2019-01-31T19:12:35.665Z,98815.88
2019-01-31T19:15:03.812Z,98819.92
2019-01-31T19:17:30.766Z,98831.28
2019-01-31T19:19:57.686Z,98828.38
2019-01-31T19:22:24.670Z,98820.24
2019-01-31T19:24:51.604Z,98820.59
2019-01-31T19:27:18.560Z,98827.67
2019-01-31T19:29:45.554Z,98817.67
2019-01-31T19:32:12.516Z,98820.38
2019-01-31T19:34:39.441Z,98818.65
2019-01-31T19:37:06.401Z,98821.22
2019-01-31T19:39:35.705Z,98820.45
2019-01-31T19:42:03.106Z,98813.37
2019-01-31T19:44:30.196Z,98815.48
2019-01-31T19:46:57.166Z,98817.08
2019-01-31T19:49:24.169Z,98812.20
2019-01-31T19:51:51.126Z,98804.52
2019-01-31T19:54:18.053Z,98804.13
2019-01-31T19:56:44.987Z,98798.19
2019-01-31T19:59:11.948Z,98798.09
2019-01-31T20:01:38.998Z,98805.23
2019-01-31T20:04:06.344Z,98800.80
2019-01-31T20:06:33.284Z,98804.53
2019-01-31T20:09:00.218Z,98804.96
2019-01-31T20:11:27.196Z,98796.36
2019-01-31T20:13:54.286Z,98795.03
2019-01-31T20:16:28.603Z,98792.34
2019-01-31T20:18:50.451Z,98795.11
2019-01-31T20:21:17.428Z,98797.24
2019-01-31T20:23:44.382Z,98798.64
2019-01-31T20:26:12.444Z,98789.89
2019-01-31T20:28:39.437Z,98787.30
2019-01-31T20:31:06.319Z,98788.73
2019-01-31T20:33:33.362Z,98784.97
2019-01-31T20:36:00.279Z,98785.07
2019-01-31T20:38:27.201Z,98781.48
2019-01-31T20:40:54.139Z,98777.91
2019-01-31T20:43:21.178Z,98782.98
2019-01-31T20:45:48.437Z,98778.75
2019-01-31T20:48:15.602Z,98773.31
2019-01-31T20:50:42.557Z,98766.30
2019-01-31T20:53:09.837Z,98767.33
2019-01-31T20:55:36.738Z,98767.14
2019-01-31T20:58:05.100Z,98762.16
2019-01-31T21:00:34.745Z,98757.27
2019-01-31T21:03:02.271Z,98751.91
2019-01-31T21:05:29.381Z,98747.91
2019-01-31T21:07:56.564Z,98746.46
2019-01-31T21:10:26.359Z,98735.69
2019-01-31T21:12:52.675Z,98742.53
2019-01-31T21:15:20.639Z,98730.27
2019-01-31T21:17:47.603Z,98728.86
2019-01-31T21:20:16.176Z,98722.91
2019-01-31T21:22:43.223Z,98730.33
2019-01-31T21:25:11.092Z,98720.55
2019-01-31T21:27:38.018Z,98721.05
2019-01-31T21:30:08.399Z,98716.98
2019-01-31T21:32:35.319Z,98710.80
2019-01-31T21:35:02.367Z,98705.65
2019-01-31T21:37:29.284Z,98707.52
2019-01-31T21:39:56.442Z,98706.48
2019-01-31T21:42:23.398Z,98702.30
2019-01-31T21:44:50.403Z,98701.19
2019-01-31T21:47:17.310Z,98700.03
2019-01-31T21:49:44.289Z,98704.29
2019-01-31T21:52:11.248Z,98704.55
2019-01-31T21:54:38.245Z,98697.83
2019-01-31T21:57:05.159Z,98695.53
2019-01-31T21:59:32.104Z,98692.95
2019-01-31T22:01:59.002Z,98687.75
2019-01-31T22:04:28.527Z,98688.20
2019-01-31T22:06:54.912Z,98682.16
2019-01-31T22:09:22.005Z,98691.47
2019-01-31T22:11:49.074Z,98692.37
2019-01-31T22:14:16.298Z,98687.33
2019-01-31T22:16:43.264Z,98686.76
2019-01-31T22:19:10.301Z,98683.23
2019-01-31T22:21:37.267Z,98680.66
2019-01-31T22:24:04.244Z,98685.64
2019-01-31T22:26:31.139Z,98681.22
2019-01-31T22:28:58.103Z,98678.78
2019-01-31T22:31:25.020Z,98681.05
2019-01-31T22:33:51.980Z,98685.58
2019-01-31T22:36:19.098Z,98673.31
2019-01-31T22:38:46.100Z,98675.50
2019-01-31T22:41:12.999Z,98666.16
2019-01-31T22:43:39.926Z,98668.06
2019-01-31T22:46:06.878Z,98670.28
2019-01-31T22:48:33.809Z,98670.63
2019-01-31T22:51:01.139Z,98669.94
2019-01-31T22:53:28.108Z,98668.10
2019-01-31T22:55:55.075Z,98662.97
2019-01-31T22:58:22.099Z,98656.86
2019-01-31T23:01:13.872Z,98651.95
2019-01-31T23:03:40.785Z,98644.16
2019-01-31T23:06:10.542Z,98643.87
2019-01-31T23:08:37.470Z,98643.88
2019-01-31T23:11:04.884Z,98641.75
2019-01-31T23:13:31.842Z,98631.75
2019-01-31T23:15:58.795Z,98635.33
2019-01-31T23:18:25.718Z,98627.84
2019-01-31T23:20:52.800Z,98621.91
2019-01-31T23:23:19.724Z,98626.95
2019-01-31T23:25:46.671Z,98625.83
2019-01-31T23:28:13.614Z,98623.47
2019-01-31T23:30:40.562Z,98613.80
2019-01-31T23:33:07.532Z,98614.19
2019-01-31T23:35:34.473Z,98604.58
2019-01-31T23:38:01.381Z,98610.71
2019-01-31T23:40:28.338Z,98616.44
2019-01-31T23:42:55.268Z,98608.63
2019-01-31T23:45:22.222Z,98611.20
2019-01-31T23:47:49.361Z,98603.53
2019-01-31T23:50:16.532Z,98611.75
2019-01-31T23:52:43.438Z,98607.02
2019-01-31T23:55:10.492Z,98608.63
2019-01-31T23:57:37.409Z,98596.33
